Cotter, Iowa
Current Conditions -  °F | °C
As of 10:15 AM on Friday 24 Oct 2014 (Local Time) from KAWG Reporting Station
Moderate Fog Moderate Fog  
Wind Chill: 55°   Ceiling: 200
Heat Index: 55°   Visibility: 0mi
Dew Point: 55°   Wind: 7mph
Humidity: 100%   Direction: 180°S
Pressure: 30.05"   Gusts: NA
Location:  41.2636°N, 91.4145°W
Report Text: KAWG 241515Z AUTO 18006KT M1/4SM FG OVC002 13/13 A3005 RMK AO2
Loading
Personal Weather Stations






























Interactive Weather Map New forecast layout! Learn more

10-Day Weather Forecast

Advertisements
Track Severe Weather on mobile